createdAt,value
2022-12-25T00:02:17.733Z,100126.88
2022-12-25T00:05:01.701Z,100119.03
2022-12-25T00:07:47.113Z,100124.88
2022-12-25T00:10:30.913Z,100130.44
2022-12-25T00:13:14.632Z,100145.44
2022-12-25T00:16:00.113Z,100134.66
2022-12-25T00:18:43.973Z,100148.31
2022-12-25T00:21:29.090Z,100160.75
2022-12-25T00:24:12.880Z,100155.63
2022-12-25T00:26:56.677Z,100161.25
2022-12-25T00:29:40.537Z,100169.56
2022-12-25T00:32:25.987Z,100161.72
2022-12-25T00:35:10.500Z,100168.22
2022-12-25T00:37:54.347Z,100186.00
2022-12-25T00:40:43.451Z,100125.47
2022-12-25T00:43:27.211Z,100158.34
2022-12-25T00:46:13.234Z,100165.97
2022-12-25T00:49:00.496Z,100172.69
2022-12-25T00:51:44.354Z,100177.53
2022-12-25T00:54:28.232Z,100168.19
2022-12-25T00:57:12.031Z,100167.59
2022-12-25T00:59:55.883Z,100175.88
2022-12-25T01:02:39.851Z,100181.00
2022-12-25T01:05:25.073Z,100179.28
2022-12-25T01:08:08.969Z,100160.31
2022-12-25T01:10:56.452Z,100177.09
2022-12-25T01:13:40.216Z,100180.47
2022-12-25T01:16:24.353Z,100180.06
2022-12-25T01:19:08.762Z,100181.78
2022-12-25T01:21:53.976Z,100184.41
2022-12-25T01:24:37.784Z,100175.44
2022-12-25T01:27:21.528Z,100177.94
2022-12-25T01:30:06.305Z,100191.09
2022-12-25T01:32:50.010Z,100166.81
2022-12-25T01:35:33.739Z,100187.56
2022-12-25T01:38:18.960Z,100190.25
2022-12-25T01:41:02.735Z,100188.44
2022-12-25T01:44:05.479Z,100184.63
2022-12-25T01:46:49.373Z,100196.16
2022-12-25T01:49:35.965Z,100191.44
2022-12-25T01:52:25.109Z,100180.59
2022-12-25T01:55:11.899Z,100172.66
2022-12-25T01:57:56.824Z,100195.28
2022-12-25T02:00:40.674Z,100197.97
2022-12-25T02:03:25.140Z,100177.94
2022-12-25T02:06:09.600Z,100196.69
2022-12-25T02:08:53.514Z,100193.44
2022-12-25T02:11:56.314Z,100200.28
2022-12-25T02:14:40.178Z,100208.97
2022-12-25T02:17:33.388Z,100207.63
2022-12-25T02:20:40.508Z,100215.78
2022-12-25T02:23:49.110Z,100219.63
2022-12-25T02:26:54.648Z,100213.22
2022-12-25T02:29:46.226Z,100213.84
2022-12-25T02:32:33.547Z,100222.00
2022-12-25T02:35:22.981Z,100154.66
2022-12-25T02:38:16.243Z,100200.16
2022-12-25T02:41:02.443Z,100179.78
2022-12-25T02:44:05.043Z,100215.19
2022-12-25T02:47:08.452Z,100177.50
2022-12-25T02:50:11.346Z,100195.97
2022-12-25T02:53:17.749Z,100223.41
2022-12-25T02:56:19.076Z,100188.97
2022-12-25T02:59:21.408Z,100242.22
2022-12-25T03:02:26.420Z,100239.25
2022-12-25T03:05:32.159Z,100243.78
2022-12-25T03:08:20.418Z,100238.34
2022-12-25T03:11:24.089Z,100245.53
2022-12-25T03:14:23.241Z,100243.97
2022-12-25T03:17:08.634Z,100185.53
2022-12-25T03:20:10.104Z,100211.56
2022-12-25T03:23:13.223Z,100259.72
2022-12-25T03:26:14.641Z,100244.78
2022-12-25T03:28:58.461Z,100250.44
2022-12-25T03:31:50.839Z,100220.41
2022-12-25T03:35:00.453Z,100236.28
2022-12-25T03:38:12.468Z,100266.84
2022-12-25T03:41:37.071Z,100269.91
2022-12-25T03:44:43.720Z,100272.28
2022-12-25T03:47:48.402Z,100256.16
2022-12-25T03:50:55.121Z,100277.47
2022-12-25T03:54:01.067Z,100286.13
2022-12-25T03:57:03.015Z,100290.66
2022-12-25T04:00:04.335Z,100287.47
2022-12-25T04:03:10.559Z,100278.75
2022-12-25T04:06:13.258Z,100295.72
2022-12-25T04:09:17.283Z,100300.25
2022-12-25T04:12:14.930Z,100284.94
2022-12-25T04:15:16.381Z,100317.19
2022-12-25T04:18:17.789Z,100324.41
2022-12-25T04:21:20.621Z,100325.81
2022-12-25T04:24:22.063Z,100323.28
2022-12-25T04:27:25.324Z,100206.78
2022-12-25T04:30:28.459Z,100321.31
2022-12-25T04:33:30.123Z,100344.72
2022-12-25T04:36:15.387Z,100345.00
2022-12-25T04:38:59.450Z,100348.38
2022-12-25T04:41:43.288Z,100357.59
2022-12-25T04:44:27.141Z,100360.81
2022-12-25T04:47:11.855Z,100362.03
2022-12-25T04:49:55.786Z,100357.50
2022-12-25T04:52:42.306Z,100372.88
2022-12-25T04:55:26.224Z,100380.84
2022-12-25T04:58:10.351Z,100372.50
2022-12-25T05:00:54.805Z,100374.69
2022-12-25T05:03:39.299Z,100393.28
2022-12-25T05:06:23.443Z,100367.50
2022-12-25T05:09:08.607Z,100391.56
2022-12-25T05:11:52.845Z,100256.03
2022-12-25T05:14:37.041Z,100388.50
2022-12-25T05:17:20.893Z,100387.31
2022-12-25T05:20:05.597Z,100384.97
2022-12-25T05:22:49.706Z,100402.38
2022-12-25T05:25:35.067Z,100400.97
2022-12-25T05:28:20.140Z,100407.63
2022-12-25T05:31:04.602Z,100376.97
2022-12-25T05:33:51.125Z,100410.22
2022-12-25T05:36:34.999Z,100413.88
2022-12-25T05:39:19.219Z,100411.53
2022-12-25T05:42:04.498Z,100417.41
2022-12-25T05:44:48.383Z,100423.22
2022-12-25T05:47:32.198Z,100408.81
2022-12-25T05:50:16.873Z,100413.56
2022-12-25T05:53:07.697Z,100422.56
2022-12-25T05:55:52.311Z,100439.19
2022-12-25T05:58:41.641Z,100450.72
2022-12-25T06:01:28.119Z,100457.06
2022-12-25T06:04:12.910Z,100440.09
2022-12-25T06:06:57.157Z,100442.88
2022-12-25T06:09:40.931Z,100437.09
2022-12-25T06:12:24.826Z,100466.00
2022-12-25T06:15:10.885Z,100468.56
2022-12-25T06:17:54.824Z,100482.16
2022-12-25T06:20:41.749Z,100482.56
2022-12-25T06:23:25.827Z,100450.03
2022-12-25T06:26:12.203Z,100500.06
2022-12-25T06:28:57.909Z,100489.22
2022-12-25T06:31:43.364Z,100494.16
2022-12-25T06:34:27.664Z,100460.81
2022-12-25T06:37:11.676Z,100505.72
2022-12-25T06:39:55.871Z,100499.16
2022-12-25T06:42:39.918Z,100507.66
2022-12-25T06:45:23.972Z,100512.66
2022-12-25T06:48:09.479Z,100524.63
2022-12-25T06:50:53.287Z,100519.00
2022-12-25T06:53:40.343Z,100496.91
2022-12-25T06:56:27.186Z,100513.91
2022-12-25T06:59:12.136Z,100533.91
2022-12-25T07:01:58.331Z,100541.25
2022-12-25T07:04:44.321Z,100535.66
2022-12-25T07:07:28.123Z,100547.19
2022-12-25T07:10:12.679Z,100548.84
2022-12-25T07:12:56.776Z,100553.50
2022-12-25T07:15:40.673Z,100566.66
2022-12-25T07:18:24.559Z,100556.97
2022-12-25T07:21:11.635Z,100552.13
2022-12-25T07:23:55.493Z,100555.63
2022-12-25T07:26:39.361Z,100558.50
2022-12-25T07:29:23.111Z,100506.69
2022-12-25T07:32:07.572Z,100560.22
2022-12-25T07:34:51.484Z,100555.94
2022-12-25T07:37:36.673Z,100578.25
2022-12-25T07:40:22.502Z,100567.44
2022-12-25T07:43:06.456Z,100564.50
2022-12-25T07:45:56.107Z,100560.72
2022-12-25T07:48:40.219Z,100553.84
2022-12-25T07:51:24.081Z,100571.03
2022-12-25T07:54:09.434Z,100568.31
2022-12-25T07:56:53.599Z,100555.53
2022-12-25T07:59:37.406Z,100565.06
2022-12-25T08:02:27.084Z,100563.88
2022-12-25T08:05:11.468Z,100587.16
2022-12-25T08:07:57.933Z,100557.09
2022-12-25T08:10:47.933Z,100582.16
2022-12-25T08:13:32.293Z,100569.13
2022-12-25T08:16:16.206Z,100581.22
2022-12-25T08:19:00.034Z,100582.47
2022-12-25T08:21:43.980Z,100592.13
2022-12-25T08:24:27.733Z,100490.66
2022-12-25T08:27:12.947Z,100578.19
2022-12-25T08:29:56.897Z,100603.38
2022-12-25T08:32:40.669Z,100611.81
2022-12-25T08:35:26.229Z,100614.81
2022-12-25T08:38:09.934Z,100623.47
2022-12-25T08:40:53.741Z,100618.00
2022-12-25T08:43:39.547Z,100610.97
2022-12-25T08:46:24.286Z,100559.56
2022-12-25T08:49:08.189Z,100611.03
2022-12-25T08:51:52.285Z,100608.88
2022-12-25T08:54:36.611Z,100564.22
2022-12-25T08:57:20.393Z,100569.00
2022-12-25T09:00:06.335Z,100601.69
2022-12-25T09:02:50.435Z,100602.59
2022-12-25T09:05:35.939Z,100604.03
2022-12-25T09:08:19.812Z,100590.09
2022-12-25T09:11:03.890Z,100602.09
2022-12-25T09:13:47.826Z,100600.34
2022-12-25T09:16:33.166Z,100587.03
2022-12-25T09:19:17.461Z,100601.06
2022-12-25T09:22:01.305Z,100600.03
2022-12-25T09:24:45.072Z,100593.56
2022-12-25T09:27:28.937Z,100595.81
2022-12-25T09:30:13.092Z,100593.22
2022-12-25T09:32:58.697Z,100570.78
2022-12-25T09:35:43.094Z,100597.47
2022-12-25T09:38:28.518Z,100581.56
2022-12-25T09:41:19.050Z,100591.91
2022-12-25T09:44:07.405Z,100584.16
2022-12-25T09:46:55.129Z,100572.19
2022-12-25T09:49:44.932Z,100583.41
2022-12-25T09:52:36.828Z,100562.31
2022-12-25T09:55:24.361Z,100576.56
2022-12-25T09:58:13.561Z,100580.88
2022-12-25T10:01:04.941Z,100579.88
2022-12-25T10:04:16.539Z,100567.81
2022-12-25T10:07:15.774Z,100580.19
2022-12-25T10:10:14.068Z,100580.28
2022-12-25T10:13:05.567Z,100583.06
2022-12-25T10:15:57.172Z,100577.75
2022-12-25T10:19:02.248Z,100585.66
2022-12-25T10:21:46.779Z,100548.59
2022-12-25T10:24:37.889Z,100575.13
2022-12-25T10:27:30.116Z,100589.97
2022-12-25T10:30:16.444Z,100591.66
2022-12-25T10:33:01.570Z,100592.91
2022-12-25T10:35:46.398Z,100590.88
2022-12-25T10:38:30.179Z,100590.66
2022-12-25T10:41:26.568Z,100602.19
2022-12-25T10:44:16.198Z,100593.53
2022-12-25T10:47:02.067Z,100605.03
2022-12-25T10:49:46.023Z,100608.16
2022-12-25T10:52:30.903Z,100600.66
2022-12-25T10:55:26.549Z,100576.44
2022-12-25T10:58:21.694Z,100564.66
2022-12-25T11:01:08.053Z,100605.28
2022-12-25T11:03:53.454Z,100604.97
2022-12-25T11:06:37.385Z,100610.56
2022-12-25T11:09:21.182Z,100618.91
2022-12-25T11:12:05.934Z,100613.47
2022-12-25T11:14:59.874Z,100618.44
2022-12-25T11:17:50.175Z,100623.53
2022-12-25T11:20:34.197Z,100607.84
2022-12-25T11:23:20.818Z,100626.81
2022-12-25T11:26:07.151Z,100619.50
2022-12-25T11:28:53.309Z,100627.59
2022-12-25T11:31:42.429Z,100615.97
2022-12-25T11:34:32.049Z,100632.69
2022-12-25T11:37:18.777Z,100627.25
2022-12-25T11:40:03.526Z,100643.44
2022-12-25T11:42:50.893Z,100631.56
2022-12-25T11:45:39.395Z,100633.81
2022-12-25T11:48:29.371Z,100627.50
2022-12-25T11:51:16.410Z,100604.38
2022-12-25T11:54:08.072Z,100633.41
2022-12-25T11:56:52.263Z,100637.94
2022-12-25T11:59:41.990Z,100626.59
2022-12-25T12:02:33.955Z,100643.50
2022-12-25T12:05:24.500Z,100634.28
2022-12-25T12:08:10.678Z,100628.13
2022-12-25T12:11:16.073Z,100655.41
2022-12-25T12:14:16.687Z,100627.59
2022-12-25T12:17:01.557Z,100649.13
2022-12-25T12:19:45.715Z,100515.34
2022-12-25T12:22:31.048Z,100655.75
2022-12-25T12:25:18.303Z,100670.28
2022-12-25T12:28:05.580Z,100663.53
2022-12-25T12:31:00.440Z,100664.91
2022-12-25T12:33:52.100Z,100692.50
2022-12-25T12:36:37.010Z,100672.41
2022-12-25T12:39:28.348Z,100668.78
2022-12-25T12:42:17.032Z,100676.91
2022-12-25T12:45:11.370Z,100676.91
2022-12-25T12:47:55.655Z,100689.56
2022-12-25T12:50:41.693Z,100682.38
2022-12-25T12:53:31.240Z,100663.75
2022-12-25T12:56:19.032Z,100672.78
2022-12-25T12:59:02.887Z,100681.22
2022-12-25T13:01:53.054Z,100691.34
2022-12-25T13:04:54.916Z,100701.00
2022-12-25T13:07:52.632Z,100703.88
2022-12-25T13:10:38.509Z,100694.78
2022-12-25T13:13:29.533Z,100714.78
2022-12-25T13:16:23.156Z,100715.50
2022-12-25T13:19:09.867Z,100721.03
2022-12-25T13:21:56.333Z,100721.56
2022-12-25T13:24:40.579Z,100713.72
2022-12-25T13:27:26.583Z,100741.50
2022-12-25T13:30:20.325Z,100749.31
2022-12-25T13:33:04.971Z,100745.13
2022-12-25T13:35:49.132Z,100744.31
2022-12-25T13:38:32.951Z,100737.63
2022-12-25T13:41:37.019Z,100726.41
2022-12-25T13:44:23.913Z,100735.22
2022-12-25T13:47:21.422Z,100723.13
2022-12-25T13:50:16.979Z,100755.63
2022-12-25T13:53:18.131Z,100764.78
2022-12-25T13:56:01.984Z,100765.91
2022-12-25T13:58:49.538Z,100761.69
2022-12-25T14:01:33.450Z,100741.81
2022-12-25T14:04:21.257Z,100775.06
2022-12-25T14:07:11.903Z,100781.16
2022-12-25T14:09:59.538Z,100790.28
2022-12-25T14:12:43.921Z,100773.72
2022-12-25T14:15:31.713Z,100788.94
2022-12-25T14:18:16.699Z,100793.81
2022-12-25T14:21:04.699Z,100770.94
2022-12-25T14:23:50.917Z,100790.50
2022-12-25T14:26:35.354Z,100786.13
2022-12-25T14:29:25.038Z,100810.81
2022-12-25T14:32:16.915Z,100809.81
2022-12-25T14:35:03.698Z,100812.28
2022-12-25T14:37:51.418Z,100730.63
2022-12-25T14:40:36.087Z,100814.25
2022-12-25T14:43:25.395Z,100799.28
2022-12-25T14:46:09.320Z,100708.69
2022-12-25T14:49:00.754Z,100818.72
2022-12-25T14:51:44.750Z,100813.16
2022-12-25T14:54:30.014Z,100832.41
2022-12-25T14:57:19.244Z,100842.88
2022-12-25T15:00:08.921Z,100848.53
2022-12-25T15:02:55.521Z,100847.84
2022-12-25T15:05:41.005Z,100846.28
2022-12-25T15:08:25.832Z,100842.03
2022-12-25T15:11:11.279Z,100823.91
2022-12-25T15:13:55.354Z,100863.34
2022-12-25T15:16:43.128Z,100854.44
2022-12-25T15:19:34.759Z,100854.59
2022-12-25T15:22:20.680Z,100856.81
2022-12-25T15:25:04.751Z,100865.66
2022-12-25T15:27:50.204Z,100862.00
2022-12-25T15:30:35.651Z,100875.09
2022-12-25T15:33:20.464Z,100852.31
2022-12-25T15:36:04.335Z,100833.91
2022-12-25T15:38:48.296Z,100886.41
2022-12-25T15:41:52.792Z,100885.97
2022-12-25T15:44:37.968Z,100890.81
2022-12-25T15:47:22.991Z,100898.97
2022-12-25T15:50:08.214Z,100904.09
2022-12-25T15:52:52.044Z,100902.91
2022-12-25T15:55:36.787Z,100891.25
2022-12-25T15:58:20.948Z,100909.56
2022-12-25T16:01:06.377Z,100906.03
2022-12-25T16:03:51.258Z,100909.25
2022-12-25T16:06:35.129Z,100923.22
2022-12-25T16:09:21.184Z,100917.25
2022-12-25T16:12:05.235Z,100861.47
2022-12-25T16:14:48.953Z,100927.63
2022-12-25T16:17:34.230Z,100939.78
2022-12-25T16:20:18.076Z,100930.56
2022-12-25T16:23:02.008Z,100936.94
2022-12-25T16:25:45.951Z,100932.59
2022-12-25T16:28:29.707Z,100934.31
2022-12-25T16:31:13.628Z,100938.09
2022-12-25T16:33:58.909Z,100938.94
2022-12-25T16:36:42.656Z,100937.88
2022-12-25T16:39:26.543Z,100935.03
2022-12-25T16:42:10.433Z,100869.53
2022-12-25T16:44:54.651Z,100940.28
2022-12-25T16:47:38.603Z,100944.81
2022-12-25T16:50:24.268Z,100907.00
2022-12-25T16:53:08.504Z,100940.38
2022-12-25T16:55:52.271Z,100950.69
2022-12-25T16:58:36.681Z,100958.09
2022-12-25T17:01:23.212Z,100975.84
2022-12-25T17:04:07.151Z,100970.88
2022-12-25T17:06:52.314Z,100979.69
2022-12-25T17:09:43.677Z,100953.75
2022-12-25T17:12:28.086Z,100976.41
2022-12-25T17:15:12.489Z,100947.03
2022-12-25T17:17:56.397Z,100994.25
2022-12-25T17:20:40.292Z,100980.97
2022-12-25T17:23:25.592Z,100993.81
2022-12-25T17:26:09.388Z,100965.47
2022-12-25T17:28:53.442Z,100985.38
2022-12-25T17:31:37.876Z,100981.25
2022-12-25T17:34:21.791Z,100985.63
2022-12-25T17:37:05.748Z,100985.63
2022-12-25T17:39:50.953Z,100925.13
2022-12-25T17:42:34.815Z,100958.69
2022-12-25T17:45:18.978Z,100959.84
2022-12-25T17:48:02.717Z,100949.72
2022-12-25T17:50:46.845Z,100961.22
2022-12-25T17:53:30.613Z,100921.47
2022-12-25T17:56:17.139Z,100953.81
2022-12-25T17:59:06.791Z,100950.94
2022-12-25T18:01:51.294Z,100940.44
2022-12-25T18:04:35.659Z,100950.25
2022-12-25T18:07:19.442Z,100973.75
2022-12-25T18:10:03.277Z,100973.28
2022-12-25T18:12:48.632Z,100969.63
2022-12-25T18:15:32.790Z,100969.44
2022-12-25T18:18:16.641Z,100971.09
2022-12-25T18:21:00.632Z,100963.97
2022-12-25T18:23:44.859Z,100971.16
2022-12-25T18:26:29.085Z,100974.00
2022-12-25T18:29:14.297Z,100966.97
2022-12-25T18:31:59.375Z,100957.78
2022-12-25T18:34:43.233Z,100979.50
2022-12-25T18:37:31.861Z,100944.91
2022-12-25T18:40:18.476Z,101005.19
2022-12-25T18:43:03.656Z,101009.66
2022-12-25T18:45:57.231Z,101009.38
2022-12-25T18:48:41.424Z,101013.28
2022-12-25T18:51:27.657Z,101022.34
2022-12-25T18:54:15.078Z,100980.38
2022-12-25T18:57:03.650Z,100978.75
2022-12-25T18:59:50.798Z,101015.84
2022-12-25T19:02:37.464Z,101027.59
2022-12-25T19:05:21.416Z,101024.19
2022-12-25T19:08:05.328Z,101028.78
2022-12-25T19:10:49.064Z,100996.66
2022-12-25T19:13:32.960Z,101029.94
2022-12-25T19:16:17.889Z,101027.41
2022-12-25T19:19:04.580Z,101010.41
2022-12-25T19:21:53.025Z,101020.53
2022-12-25T19:24:37.683Z,101003.97
2022-12-25T19:27:21.620Z,101005.16
2022-12-25T19:30:06.553Z,101013.03
2022-12-25T19:32:50.472Z,100967.25
2022-12-25T19:35:35.783Z,101033.16
2022-12-25T19:38:20.330Z,100995.66
2022-12-25T19:41:07.283Z,101039.44
2022-12-25T19:43:52.263Z,101004.44
2022-12-25T19:46:40.173Z,101045.81
2022-12-25T19:49:24.230Z,101042.16
2022-12-25T19:52:09.572Z,101048.16
2022-12-25T19:54:53.471Z,101046.66
2022-12-25T19:57:37.190Z,101032.09
2022-12-25T20:00:21.260Z,101045.44
2022-12-25T20:03:05.645Z,101014.97
2022-12-25T20:05:49.612Z,101042.63
2022-12-25T20:08:35.550Z,101052.06
2022-12-25T20:11:20.003Z,101056.81
2022-12-25T20:14:03.998Z,101064.25
2022-12-25T20:16:48.099Z,101071.34
2022-12-25T20:19:31.908Z,101079.41
2022-12-25T20:22:17.169Z,101084.63
2022-12-25T20:25:03.360Z,101080.03
2022-12-25T20:27:47.562Z,101043.72
2022-12-25T20:30:33.454Z,101088.78
2022-12-25T20:33:17.281Z,101082.34
2022-12-25T20:36:03.002Z,101060.63
2022-12-25T20:38:46.823Z,101079.78
2022-12-25T20:41:32.343Z,101095.38
2022-12-25T20:44:16.187Z,101087.81
2022-12-25T20:47:01.191Z,101088.66
2022-12-25T20:49:45.138Z,101103.19
2022-12-25T20:52:28.895Z,101062.72
2022-12-25T20:55:14.224Z,101108.91
2022-12-25T20:57:59.496Z,101103.41
2022-12-25T21:00:44.510Z,101120.06
2022-12-25T21:03:28.553Z,101124.66
2022-12-25T21:06:13.215Z,101113.97
2022-12-25T21:08:57.079Z,101122.88
2022-12-25T21:11:40.846Z,100945.31
2022-12-25T21:14:26.314Z,101120.91
2022-12-25T21:17:10.150Z,101137.53
2022-12-25T21:19:54.057Z,101138.22
2022-12-25T21:22:37.899Z,101137.78
2022-12-25T21:25:21.675Z,101136.44
2022-12-25T21:28:05.452Z,101137.56
2022-12-25T21:30:50.569Z,101132.06
2022-12-25T21:33:51.952Z,101126.16
2022-12-25T21:36:36.019Z,101137.41
2022-12-25T21:39:19.807Z,101093.72
2022-12-25T21:42:04.705Z,101141.16
2022-12-25T21:44:49.658Z,101141.03
2022-12-25T21:48:01.803Z,101131.63
2022-12-25T21:50:56.344Z,101085.41
2022-12-25T21:53:40.843Z,101139.13
2022-12-25T21:56:25.521Z,101125.56
2022-12-25T21:59:10.422Z,101121.38
2022-12-25T22:01:54.555Z,101136.84
2022-12-25T22:04:40.013Z,101128.16
2022-12-25T22:07:22.762Z,101137.97
2022-12-25T22:10:07.052Z,101137.16
2022-12-25T22:13:08.519Z,101128.88
2022-12-25T22:16:09.812Z,101136.06
2022-12-25T22:19:11.309Z,101126.50
2022-12-25T22:21:56.458Z,101127.66
2022-12-25T22:24:40.301Z,101124.25
2022-12-25T22:27:24.906Z,101111.19
2022-12-25T22:30:10.503Z,101133.69
2022-12-25T22:32:54.865Z,101128.53
2022-12-25T22:35:38.601Z,101130.97
2022-12-25T22:38:23.786Z,101128.09
2022-12-25T22:41:08.224Z,101129.88
2022-12-25T22:44:16.562Z,101139.59
2022-12-25T22:46:55.847Z,101146.63
2022-12-25T22:49:39.650Z,101140.59
2022-12-25T22:52:23.565Z,101139.22
2022-12-25T22:55:11.057Z,101160.94
2022-12-25T22:57:56.049Z,101168.19
2022-12-25T23:00:45.936Z,101154.03
2022-12-25T23:03:30.400Z,101160.94
2022-12-25T23:06:14.232Z,101161.06
2022-12-25T23:08:58.187Z,101158.81
2022-12-25T23:11:43.595Z,101158.03
2022-12-25T23:14:39.377Z,101165.56
2022-12-25T23:17:37.012Z,101166.50
2022-12-25T23:20:38.538Z,101162.81
2022-12-25T23:23:42.355Z,101165.47
2022-12-25T23:26:26.131Z,101157.19
2022-12-25T23:29:28.861Z,101162.34
2022-12-25T23:32:15.252Z,101169.25
2022-12-25T23:34:59.107Z,101134.09
2022-12-25T23:37:42.943Z,101169.66
2022-12-25T23:40:26.832Z,101175.69
2022-12-25T23:43:11.955Z,101183.31
2022-12-25T23:45:57.092Z,101162.75
2022-12-25T23:48:40.840Z,101181.78
2022-12-25T23:51:24.686Z,101162.47
2022-12-25T23:54:09.386Z,101187.69
2022-12-25T23:56:53.686Z,101188.63
2022-12-25T23:59:37.567Z,101198.13
